DU142 OMDW-ZZZZ
Flight info
| Callsign | DU142 |
|---|---|
| Flight time | N/A |
| Altitude | 5000 |
| Route | EGTAG DCT MITIX DCT TOVIV DCT 2551N05520E 2552N05519E 2552N05518E 2552N05516E 2552N05513E 2552N05511E |
| Aircraft | A139/L-DFGHILOY/C |
Departure
| Time | 2026-04-25 20:23 |
|---|---|
| Airport | Al Maktoum International Airport (OMDW) |
Arrival
| Time | N/A |
|---|---|
| Airport | ZZZZ |
| Time | Latitude | Longitude | Altitude | Speed | Heading |
|---|---|---|---|---|---|
| 2026-04-25 20:02 | 24.89564 | 55.14948 | 108 ft | 0 kts | 301° |
| 2026-04-25 20:23 | 24.89562 | 55.14948 | 141 ft | 3 kts | 305° |
| 2026-04-25 20:23 | 24.89605 | 55.14884 | 201 ft | 36 kts | 308° |
| 2026-04-25 20:23 | 24.89838 | 55.14714 | 559 ft | 45 kts | 9° |
| 2026-04-25 20:23 | 24.90218 | 55.14735 | 865 ft | 71 kts | 354° |
| 2026-04-25 20:24 | 24.90766 | 55.14637 | 1237 ft | 83 kts | 347° |
| 2026-04-25 20:24 | 24.91343 | 55.14649 | 1505 ft | 85 kts | 351° |
| 2026-04-25 20:24 | 24.91939 | 55.14674 | 1740 ft | 88 kts | 351° |
| 2026-04-25 20:24 | 24.92543 | 55.14806 | 1993 ft | 88 kts | 1° |
| 2026-04-25 20:25 | 24.93129 | 55.14965 | 2222 ft | 87 kts | 1° |
| 2026-04-25 20:25 | 24.93724 | 55.15120 | 2445 ft | 88 kts | 1° |
| 2026-04-25 20:25 | 24.94349 | 55.15271 | 2640 ft | 96 kts | 2° |
| 2026-04-25 20:25 | 24.95055 | 55.15406 | 2883 ft | 110 kts | 1° |
| 2026-04-25 20:26 | 24.95853 | 55.15509 | 3098 ft | 120 kts | 3° |
| 2026-04-25 20:26 | 24.96668 | 55.15617 | 3416 ft | 121 kts | 12° |
| 2026-04-25 20:26 | 24.97504 | 55.15791 | 3697 ft | 123 kts | 12° |
| 2026-04-25 20:26 | 24.98329 | 55.15964 | 3972 ft | 124 kts | 12° |
| 2026-04-25 20:27 | 24.99181 | 55.16144 | 4242 ft | 125 kts | 12° |
| 2026-04-25 20:27 | 25.00036 | 55.16322 | 4533 ft | 125 kts | 12° |
| 2026-04-25 20:27 | 25.00891 | 55.16507 | 4807 ft | 126 kts | 12° |
| 2026-04-25 20:27 | 25.01749 | 55.16713 | 4957 ft | 124 kts | 11° |
| 2026-04-25 20:28 | 25.02601 | 55.16959 | 4914 ft | 126 kts | 11° |
| 2026-04-25 20:28 | 25.03444 | 55.17195 | 4891 ft | 126 kts | 12° |
| 2026-04-25 20:28 | 25.04300 | 55.17435 | 4882 ft | 127 kts | 12° |
| 2026-04-25 20:28 | 25.05150 | 55.17667 | 4883 ft | 127 kts | 12° |
| 2026-04-25 20:29 | 25.06022 | 55.17900 | 4882 ft | 127 kts | 12° |
| 2026-04-25 20:29 | 25.06581 | 55.18053 | 4889 ft | 126 kts | 12° |
| 2026-04-25 20:29 | 25.07735 | 55.18368 | 4883 ft | 127 kts | 12° |
| 2026-04-25 20:29 | 25.08591 | 55.18602 | 4886 ft | 127 kts | 12° |
| 2026-04-25 20:30 | 25.09455 | 55.18839 | 4880 ft | 127 kts | 12° |
| 2026-04-25 20:30 | 25.10312 | 55.19078 | 4883 ft | 127 kts | 12° |
| 2026-04-25 20:30 | 25.10891 | 55.19240 | 4879 ft | 128 kts | 11° |
| 2026-04-25 20:30 | 25.11752 | 55.19481 | 4860 ft | 130 kts | 12° |
| 2026-04-25 20:31 | 25.13020 | 55.19754 | 4876 ft | 148 kts | 12° |
| 2026-04-25 20:31 | 25.14039 | 55.19965 | 4950 ft | 151 kts | 12° |
| 2026-04-25 20:31 | 25.14732 | 55.20126 | 4969 ft | 150 kts | 11° |
| 2026-04-25 20:31 | 25.16073 | 55.20511 | 4910 ft | 149 kts | 12° |
| 2026-04-25 20:32 | 25.17086 | 55.20790 | 4878 ft | 149 kts | 12° |
| 2026-04-25 20:32 | 25.18093 | 55.21068 | 4870 ft | 149 kts | 12° |
| 2026-04-25 20:32 | 25.19106 | 55.21335 | 4852 ft | 150 kts | 11° |
| 2026-04-25 20:32 | 25.20126 | 55.21596 | 4865 ft | 149 kts | 12° |
| 2026-04-25 20:33 | 25.21122 | 55.21857 | 4872 ft | 149 kts | 11° |
| 2026-04-25 20:33 | 25.22146 | 55.22123 | 4865 ft | 150 kts | 12° |
| 2026-04-25 20:33 | 25.23167 | 55.22373 | 4870 ft | 150 kts | 12° |
| 2026-04-25 20:33 | 25.23504 | 55.22459 | 4875 ft | 150 kts | 12° |
| 2026-04-25 20:34 | 25.25184 | 55.22895 | 4874 ft | 150 kts | 13° |
| 2026-04-25 20:34 | 25.26206 | 55.23165 | 4866 ft | 151 kts | 11° |
| 2026-04-25 20:34 | 25.27235 | 55.23430 | 4874 ft | 151 kts | 12° |
| 2026-04-25 20:34 | 25.28251 | 55.23694 | 4887 ft | 150 kts | 12° |
| 2026-04-25 20:35 | 25.29266 | 55.23969 | 4874 ft | 150 kts | 12° |
| 2026-04-25 20:35 | 25.30287 | 55.24240 | 4863 ft | 151 kts | 12° |
| 2026-04-25 20:35 | 25.31314 | 55.24495 | 4865 ft | 151 kts | 12° |
| 2026-04-25 20:35 | 25.32336 | 55.24764 | 4870 ft | 151 kts | 12° |
| 2026-04-25 20:36 | 25.33356 | 55.25035 | 4874 ft | 150 kts | 12° |
| 2026-04-25 20:36 | 25.34372 | 55.25314 | 4872 ft | 150 kts | 12° |
| 2026-04-25 20:36 | 25.35375 | 55.25589 | 4866 ft | 150 kts | 12° |
| 2026-04-25 20:36 | 25.36390 | 55.25859 | 4868 ft | 150 kts | 12° |
| 2026-04-25 20:37 | 25.37420 | 55.26137 | 4863 ft | 150 kts | 13° |
| 2026-04-25 20:37 | 25.38441 | 55.26394 | 4864 ft | 151 kts | 12° |
| 2026-04-25 20:37 | 25.39454 | 55.26661 | 4867 ft | 151 kts | 12° |
| 2026-04-25 20:37 | 25.40481 | 55.26942 | 4864 ft | 151 kts | 12° |
| 2026-04-25 20:38 | 25.41488 | 55.27209 | 4863 ft | 151 kts | 11° |
| 2026-04-25 20:38 | 25.42161 | 55.27399 | 4875 ft | 151 kts | 12° |
| 2026-04-25 20:38 | 25.43524 | 55.27773 | 4866 ft | 151 kts | 12° |
| 2026-04-25 20:38 | 25.44549 | 55.28046 | 4863 ft | 151 kts | 11° |
| 2026-04-25 20:39 | 25.45553 | 55.28324 | 4876 ft | 150 kts | 12° |
| 2026-04-25 20:39 | 25.46569 | 55.28606 | 4860 ft | 150 kts | 12° |
| 2026-04-25 20:39 | 25.47584 | 55.28834 | 4856 ft | 150 kts | 7° |
| 2026-04-25 20:39 | 25.47932 | 55.28889 | 4861 ft | 150 kts | 7° |
| 2026-04-25 20:40 | 25.49670 | 55.29123 | 4870 ft | 149 kts | 4° |
| 2026-04-25 20:40 | 25.50708 | 55.29226 | 4866 ft | 149 kts | 4° |
| 2026-04-25 20:40 | 25.51737 | 55.29326 | 4852 ft | 151 kts | 2° |
| 2026-04-25 20:40 | 25.52777 | 55.29432 | 4858 ft | 151 kts | 4° |
| 2026-04-25 20:41 | 25.53832 | 55.29535 | 4853 ft | 152 kts | 4° |
| 2026-04-25 20:41 | 25.54876 | 55.29641 | 4874 ft | 152 kts | 4° |
| 2026-04-25 20:41 | 25.55876 | 55.29743 | 4887 ft | 152 kts | 2° |
| 2026-04-25 20:41 | 25.56922 | 55.29851 | 4891 ft | 151 kts | 2° |
| 2026-04-25 20:42 | 25.57969 | 55.29951 | 4873 ft | 151 kts | 2° |
| 2026-04-25 20:42 | 25.59026 | 55.30056 | 4853 ft | 151 kts | 2° |
| 2026-04-25 20:42 | 25.60066 | 55.30158 | 4841 ft | 151 kts | 3° |
| 2026-04-25 20:42 | 25.61116 | 55.30262 | 4837 ft | 151 kts | 3° |
| 2026-04-25 20:43 | 25.62160 | 55.30372 | 4844 ft | 150 kts | 4° |
| 2026-04-25 20:43 | 25.62845 | 55.30440 | 4845 ft | 150 kts | 4° |
| 2026-04-25 20:43 | 25.64243 | 55.30584 | 4842 ft | 151 kts | 4° |
| 2026-04-25 20:43 | 25.65291 | 55.30694 | 4846 ft | 151 kts | 4° |
| 2026-04-25 20:44 | 25.66346 | 55.30800 | 4848 ft | 152 kts | 4° |
| 2026-04-25 20:44 | 25.67404 | 55.30907 | 4852 ft | 152 kts | 4° |
| 2026-04-25 20:44 | 25.68454 | 55.31015 | 4855 ft | 152 kts | 4° |
| 2026-04-25 20:44 | 25.69502 | 55.31121 | 4851 ft | 152 kts | 4° |
| 2026-04-25 20:45 | 25.70555 | 55.31226 | 4843 ft | 153 kts | 3° |
| 2026-04-25 20:45 | 25.71495 | 55.31325 | 4846 ft | 152 kts | 2° |
| 2026-04-25 20:45 | 25.72507 | 55.31426 | 4841 ft | 151 kts | 4° |
| 2026-04-25 20:45 | 25.73570 | 55.31534 | 4842 ft | 151 kts | 2° |
| 2026-04-25 20:46 | 25.74579 | 55.31642 | 4778 ft | 140 kts | 359° |
| 2026-04-25 20:46 | 25.75518 | 55.31725 | 4687 ft | 132 kts | 359° |
| 2026-04-25 20:46 | 25.76394 | 55.31808 | 4627 ft | 118 kts | 356° |
| 2026-04-25 20:46 | 25.77169 | 55.31881 | 4447 ft | 108 kts | 356° |
| 2026-04-25 20:47 | 25.77914 | 55.31944 | 4218 ft | 107 kts | 356° |
| 2026-04-25 20:47 | 25.78658 | 55.32010 | 3982 ft | 108 kts | 357° |
| 2026-04-25 20:47 | 25.79162 | 55.32056 | 3824 ft | 108 kts | 357° |
| 2026-04-25 20:47 | 25.80154 | 55.32149 | 3514 ft | 108 kts | 359° |
| 2026-04-25 20:48 | 25.80901 | 55.32223 | 3280 ft | 107 kts | 359° |
| 2026-04-25 20:48 | 25.81638 | 55.32297 | 3051 ft | 106 kts | 358° |
| 2026-04-25 20:48 | 25.82366 | 55.32371 | 2789 ft | 105 kts | 358° |
| 2026-04-25 20:48 | 25.83088 | 55.32441 | 2513 ft | 105 kts | 358° |
| 2026-04-25 20:49 | 25.83815 | 55.32513 | 2230 ft | 105 kts | 357° |
| 2026-04-25 20:49 | 25.84521 | 55.32586 | 1962 ft | 103 kts | 356° |
| 2026-04-25 20:49 | 25.85235 | 55.32649 | 1668 ft | 102 kts | 352° |
| 2026-04-25 20:49 | 25.85848 | 55.32341 | 1479 ft | 97 kts | 326° |
| 2026-04-25 20:50 | 25.86406 | 55.31935 | 1460 ft | 98 kts | 314° |
| 2026-04-25 20:50 | 25.86596 | 55.31222 | 1502 ft | 95 kts | 274° |
| 2026-04-25 20:50 | 25.86613 | 55.30533 | 1438 ft | 86 kts | 272° |
| 2026-04-25 20:50 | 25.86617 | 55.29875 | 1392 ft | 85 kts | 274° |
| 2026-04-25 20:51 | 25.86631 | 55.29216 | 1321 ft | 85 kts | 274° |
| 2026-04-25 20:51 | 25.86649 | 55.28553 | 1221 ft | 86 kts | 273° |
| 2026-04-25 20:51 | 25.86666 | 55.27893 | 1099 ft | 86 kts | 273° |
| 2026-04-25 20:51 | 25.86685 | 55.27218 | 981 ft | 87 kts | 273° |
| 2026-04-25 20:52 | 25.86706 | 55.26586 | 892 ft | 77 kts | 271° |
| 2026-04-25 20:52 | 25.86710 | 55.26389 | 855 ft | 72 kts | 271° |
| 2026-04-25 20:52 | 25.86723 | 55.25528 | 679 ft | 65 kts | 276° |
| 2026-04-25 20:52 | 25.86737 | 55.25028 | 603 ft | 64 kts | 278° |
| 2026-04-25 20:53 | 25.86754 | 55.24529 | 550 ft | 65 kts | 278° |
| 2026-04-25 20:53 | 25.86774 | 55.24026 | 493 ft | 66 kts | 277° |
| 2026-04-25 20:53 | 25.86794 | 55.23522 | 429 ft | 65 kts | 276° |
| 2026-04-25 20:53 | 25.86809 | 55.23023 | 356 ft | 64 kts | 274° |
| 2026-04-25 20:54 | 25.86825 | 55.22521 | 281 ft | 66 kts | 274° |
| 2026-04-25 20:54 | 25.86843 | 55.22009 | 252 ft | 63 kts | 275° |
| 2026-04-25 20:54 | 25.86862 | 55.21555 | 194 ft | 55 kts | 275° |
| 2026-04-25 20:54 | 25.86857 | 55.21272 | 169 ft | 55 kts | 275° |
| 2026-04-25 20:55 | 25.86853 | 55.20712 | 200 ft | 54 kts | 284° |
| 2026-04-25 20:55 | 25.86883 | 55.20288 | 216 ft | 55 kts | 284° |
| 2026-04-25 20:55 | 25.86834 | 55.19920 | 254 ft | 42 kts | 284° |
| 2026-04-25 20:55 | 25.86913 | 55.19655 | 242 ft | 33 kts | 280° |
| 2026-04-25 20:56 | 25.86953 | 55.19467 | 210 ft | 15 kts | 278° |
| 2026-04-25 20:56 | 25.86947 | 55.19382 | 230 ft | 9 kts | 274° |
| 2026-04-25 20:56 | 25.86931 | 55.19337 | 238 ft | 8 kts | 284° |
| 2026-04-25 20:56 | 25.86936 | 55.19264 | 218 ft | 11 kts | 284° |
| 2026-04-25 20:57 | 25.86956 | 55.19208 | 215 ft | 4 kts | 281° |
| 2026-04-25 20:57 | 25.86974 | 55.19153 | 210 ft | 11 kts | 279° |
| 2026-04-25 20:57 | 25.86978 | 55.19103 | 204 ft | 11 kts | 281° |
| 2026-04-25 20:57 | 25.86998 | 55.19033 | 151 ft | 4 kts | 257° |
| 2026-04-25 20:58 | 25.87008 | 55.19010 | 134 ft | 3 kts | 271° |
| 2026-04-25 20:58 | 25.87013 | 55.19000 | 120 ft | 0 kts | 290° |